Time;durP1;ratioP1;P1;durP2;ratioP2;P2;SDS_P1;SDS_P2;PMS_P1;PMS_P2;Temp;Humidity;BMP_temperature;BMP_pressure;BME280_temperature;BME280_humidity;BME280_pressure;Samples;Min_cycle;Max_cycle;Signal;HPM_P1;HPM_P2
2022/07/22 00:01:40;;;;;;;11.45;4.22;;;17.40;99.90;;;;;;5089694;28;20071;-92
2022/07/22 00:04:05;;;;;;;12.13;3.83;;;17.40;99.90;;;;;;5073147;28;20036;-92
2022/07/22 00:06:31;;;;;;;10.80;3.15;;;17.40;99.90;;;;;;5089839;28;20486;-91
2022/07/22 00:08:57;;;;;;;16.15;4.50;;;17.30;99.90;;;;;;5089626;28;20382;-92
2022/07/22 00:11:23;;;;;;;10.90;4.07;;;17.30;99.90;;;;;;5091654;28;20149;-92
2022/07/22 00:13:49;;;;;;;11.07;3.85;;;17.30;99.90;;;;;;5089009;28;20035;-92
2022/07/22 00:16:15;;;;;;;10.70;4.10;;;17.30;99.90;;;;;;5089977;28;20101;-92
2022/07/22 00:18:41;;;;;;;13.07;4.00;;;17.30;99.90;;;;;;5093504;28;20039;-92
2022/07/22 00:21:06;;;;;;;11.75;4.15;;;17.30;99.90;;;;;;5092353;28;20044;-92
2022/07/22 00:23:32;;;;;;;13.77;3.80;;;17.30;99.90;;;;;;5092797;28;20068;-92
2022/07/22 00:25:57;;;;;;;11.10;3.53;;;17.30;99.90;;;;;;5092865;28;20094;-92
2022/07/22 00:28:23;;;;;;;11.95;4.13;;;17.30;99.90;;;;;;5092549;28;20469;-91
2022/07/22 00:30:49;;;;;;;14.20;3.67;;;17.20;99.90;;;;;;5092953;28;20679;-92
2022/07/22 00:33:15;;;;;;;12.80;3.70;;;17.20;99.90;;;;;;5093363;28;20039;-91
2022/07/22 00:35:40;;;;;;;13.10;3.92;;;17.20;99.90;;;;;;5094328;28;20111;-92
2022/07/22 00:38:06;;;;;;;13.48;4.13;;;17.20;99.90;;;;;;5093495;28;20088;-92
2022/07/22 00:40:31;;;;;;;14.95;4.07;;;17.20;99.90;;;;;;5093399;28;20481;-92
2022/07/22 00:42:57;;;;;;;13.52;3.75;;;17.20;99.90;;;;;;5076383;28;20560;-92
2022/07/22 00:45:22;;;;;;;13.02;3.67;;;17.20;99.90;;;;;;5109012;28;20036;-92
2022/07/22 00:47:48;;;;;;;10.43;3.60;;;17.20;99.90;;;;;;5110299;28;20040;-92
2022/07/22 00:50:14;;;;;;;16.40;4.78;;;17.20;99.90;;;;;;5092791;28;20043;-92
2022/07/22 00:52:43;;;;;;;13.02;3.65;;;17.20;99.90;;;;;;5093761;28;20070;-92
2022/07/22 00:55:10;;;;;;;14.43;4.55;;;17.30;99.90;;;;;;5093192;28;20044;-92
2022/07/22 00:57:35;;;;;;;15.32;5.20;;;17.20;99.90;;;;;;5075752;28;20050;-92
2022/07/22 01:00:04;;;;;;;14.48;4.38;;;17.20;99.90;;;;;;5093205;28;20042;-92
2022/07/22 01:02:29;;;;;;;12.55;4.38;;;17.10;99.90;;;;;;5094515;28;20046;-92
2022/07/22 01:04:55;;;;;;;15.40;4.28;;;17.10;99.90;;;;;;5092351;28;20044;-92
2022/07/22 01:07:20;;;;;;;14.32;4.47;;;17.00;99.90;;;;;;5075183;28;20032;-92
2022/07/22 01:09:46;;;;;;;15.18;4.63;;;17.00;99.90;;;;;;5076017;28;20032;-92
2022/07/22 01:12:12;;;;;;;14.18;4.07;;;17.00;99.90;;;;;;5076236;28;20420;-92
2022/07/22 01:14:38;;;;;;;13.27;4.45;;;17.00;99.90;;;;;;5091740;28;20036;-92
2022/07/22 01:17:05;;;;;;;12.00;3.70;;;16.90;99.90;;;;;;5094215;28;20043;-92
2022/07/22 01:19:30;;;;;;;13.48;4.20;;;16.90;99.90;;;;;;5092316;28;20064;-92
2022/07/22 01:21:56;;;;;;;11.27;4.32;;;16.90;99.90;;;;;;5091819;28;20071;-92
2022/07/22 01:24:21;;;;;;;15.07;4.47;;;16.90;99.90;;;;;;5092216;28;20036;-91
2022/07/22 01:26:47;;;;;;;13.52;4.50;;;16.90;99.90;;;;;;5075082;28;20519;-92
2022/07/22 01:29:13;;;;;;;14.98;4.38;;;16.90;99.90;;;;;;5091279;28;20043;-92
2022/07/22 01:31:39;;;;;;;14.52;4.30;;;16.80;99.90;;;;;;5092837;28;20089;-92
2022/07/22 01:34:04;;;;;;;13.35;4.13;;;16.80;99.90;;;;;;5075065;28;20398;-92
2022/07/22 01:36:30;;;;;;;13.10;4.15;;;16.80;99.90;;;;;;5076110;28;20093;-92
2022/07/22 01:38:56;;;;;;;10.63;3.88;;;16.80;99.90;;;;;;5091928;28;20043;-92
2022/07/22 01:41:21;;;;;;;14.32;3.90;;;16.80;99.90;;;;;;5092542;28;20046;-92
2022/07/22 01:43:47;;;;;;;14.93;4.43;;;16.80;99.90;;;;;;5090639;28;20036;-91
2022/07/22 01:46:13;;;;;;;13.57;4.10;;;16.80;99.90;;;;;;5074912;28;20039;-92
2022/07/22 01:48:39;;;;;;;15.93;4.63;;;16.80;99.90;;;;;;5091855;28;20081;-92
2022/07/22 01:51:05;;;;;;;12.55;4.20;;;16.80;99.90;;;;;;5074843;28;20050;-93
2022/07/22 01:53:30;;;;;;;15.65;4.85;;;16.80;99.90;;;;;;5092695;28;20127;-93
2022/07/22 01:55:56;;;;;;;12.52;4.50;;;16.90;99.90;;;;;;5091852;28;20035;-92
2022/07/22 01:58:22;;;;;;;13.95;4.03;;;16.80;99.90;;;;;;5092208;28;20074;-92
2022/07/22 02:00:48;;;;;;;16.55;4.88;;;16.90;99.90;;;;;;5074930;28;20043;-93
2022/07/22 02:03:14;;;;;;;13.43;4.25;;;16.80;99.90;;;;;;5091286;28;20087;-92
2022/07/22 02:05:40;;;;;;;11.77;4.10;;;16.90;99.90;;;;;;5091113;28;20115;-92
2022/07/22 02:08:09;;;;;;;11.40;3.47;;;16.80;99.90;;;;;;5074255;28;20036;-92
2022/07/22 02:10:35;;;;;;;12.00;4.03;;;16.90;99.90;;;;;;5091564;28;20044;-93
2022/07/22 02:13:02;;;;;;;12.13;3.85;;;16.90;99.90;;;;;;5075115;28;20090;-93
2022/07/22 02:15:28;;;;;;;15.48;4.03;;;16.90;99.90;;;;;;5091264;28;20036;-93
2022/07/22 02:17:54;;;;;;;15.32;4.05;;;16.90;99.90;;;;;;5075250;28;20042;-92
2022/07/22 02:20:20;;;;;;;13.52;3.88;;;16.90;99.90;;;;;;5091115;28;20040;-93
2022/07/22 02:22:46;;;;;;;12.00;3.85;;;16.90;99.90;;;;;;5073577;28;20036;-92
2022/07/22 02:25:11;;;;;;;14.98;4.55;;;16.80;99.90;;;;;;5090834;28;20036;-93
2022/07/22 02:27:37;;;;;;;12.57;3.97;;;16.80;99.90;;;;;;5073909;28;20036;-93
2022/07/22 02:30:05;;;;;;;13.38;3.67;;;16.70;99.90;;;;;;5074428;28;20040;-92
2022/07/22 02:32:30;;;;;;;14.98;4.45;;;16.70;99.90;;;;;;5091456;28;20032;-93
2022/07/22 02:34:56;;;;;;;14.02;3.80;;;16.60;99.90;;;;;;5091351;28;20051;-93
2022/07/22 02:37:22;;;;;;;12.25;3.92;;;16.60;99.90;;;;;;5093029;28;20527;-92
2022/07/22 02:39:47;;;;;;;13.27;4.22;;;16.60;99.90;;;;;;5089664;28;20399;-92
2022/07/22 02:42:13;;;;;;;11.85;3.58;;;16.50;99.90;;;;;;5091331;28;20548;-92
2022/07/22 02:44:38;;;;;;;14.30;4.30;;;16.50;99.90;;;;;;5089722;28;20032;-92
2022/07/22 02:47:04;;;;;;;14.57;3.90;;;16.50;99.90;;;;;;5092003;28;20036;-92
2022/07/22 02:49:30;;;;;;;12.50;3.88;;;16.40;99.90;;;;;;5073671;28;20469;-93
2022/07/22 02:51:55;;;;;;;10.95;3.70;;;16.40;99.90;;;;;;5074526;28;20056;-93
2022/07/22 02:54:21;;;;;;;13.45;4.18;;;16.40;99.90;;;;;;5074245;28;20044;-93
2022/07/22 02:56:46;;;;;;;12.38;3.70;;;16.40;99.90;;;;;;5090770;28;20047;-93
2022/07/22 02:59:12;;;;;;;12.20;3.85;;;16.40;99.90;;;;;;5090918;28;20039;-93
2022/07/22 03:01:37;;;;;;;14.60;3.65;;;16.30;99.90;;;;;;5090468;28;20374;-93
2022/07/22 03:04:03;;;;;;;10.05;2.65;;;16.30;99.90;;;;;;5090811;28;20169;-93
2022/07/22 03:06:29;;;;;;;12.13;3.60;;;16.30;99.90;;;;;;5089925;28;20036;-92
2022/07/22 03:08:55;;;;;;;11.52;3.08;;;16.20;99.90;;;;;;5090294;28;20046;-93
2022/07/22 03:11:20;;;;;;;14.05;3.45;;;16.30;99.90;;;;;;5090791;28;20069;-92
2022/07/22 03:13:46;;;;;;;13.07;3.22;;;16.30;99.90;;;;;;5090065;28;20040;-92
2022/07/22 03:16:11;;;;;;;11.35;3.80;;;16.30;99.90;;;;;;5073803;28;20048;-92
2022/07/22 03:18:37;;;;;;;11.70;3.40;;;16.30;99.90;;;;;;5090815;28;20036;-92
2022/07/22 03:21:03;;;;;;;14.80;3.53;;;16.30;99.90;;;;;;5089583;28;20044;-93
2022/07/22 03:23:28;;;;;;;9.63;2.88;;;16.30;99.90;;;;;;5089922;28;20066;-93
2022/07/22 03:25:56;;;;;;;11.65;3.30;;;16.40;99.90;;;;;;5072733;28;20036;-92
2022/07/22 03:28:22;;;;;;;12.75;3.38;;;16.30;99.90;;;;;;5088548;28;20036;-93
2022/07/22 03:30:47;;;;;;;10.82;3.05;;;16.30;99.90;;;;;;5089825;28;20051;-93
2022/07/22 03:33:13;;;;;;;10.07;3.10;;;16.30;99.90;;;;;;5091415;28;20039;-93
2022/07/22 03:35:39;;;;;;;10.88;2.90;;;16.40;99.90;;;;;;5072655;28;20059;-93
2022/07/22 03:38:04;;;;;;;10.60;3.00;;;16.30;99.90;;;;;;5073238;28;20039;-93
2022/07/22 03:40:30;;;;;;;9.38;3.10;;;16.30;99.90;;;;;;5089528;28;20028;-93
2022/07/22 03:42:55;;;;;;;6.43;1.98;;;16.30;99.90;;;;;;5090564;28;20052;-93
2022/07/22 03:45:21;;;;;;;11.68;3.10;;;16.30;99.90;;;;;;5072539;28;20071;-93
2022/07/22 03:47:46;;;;;;;11.48;2.97;;;16.30;99.90;;;;;;5072753;28;20047;-93
2022/07/22 03:50:12;;;;;;;10.85;3.22;;;16.20;99.90;;;;;;5089410;28;20044;-92
2022/07/22 03:52:38;;;;;;;10.25;2.92;;;16.20;99.90;;;;;;5089955;28;20059;-93
2022/07/22 03:55:04;;;;;;;9.32;2.60;;;16.20;99.90;;;;;;5090352;28;20036;-93
2022/07/22 03:57:30;;;;;;;11.68;2.70;;;16.20;99.90;;;;;;5089821;28;20036;-92
2022/07/22 03:59:56;;;;;;;10.15;2.75;;;16.20;99.90;;;;;;5090009;28;20163;-93
2022/07/22 04:02:22;;;;;;;9.65;2.50;;;16.20;99.90;;;;;;5089240;28;20036;-92
2022/07/22 04:04:47;;;;;;;9.57;2.88;;;16.20;99.90;;;;;;5072548;28;20043;-92
2022/07/22 04:07:13;;;;;;;11.15;2.58;;;16.20;99.90;;;;;;5088765;28;20028;-91
2022/07/22 04:09:38;;;;;;;9.25;2.25;;;16.20;99.90;;;;;;5088331;28;20032;-92
2022/07/22 04:12:04;;;;;;;6.10;2.03;;;16.20;99.90;;;;;;5089715;28;20032;-92
2022/07/22 04:14:30;;;;;;;9.00;2.85;;;16.20;99.90;;;;;;5089068;28;20036;-92
2022/07/22 04:16:57;;;;;;;11.07;2.58;;;16.10;99.90;;;;;;5089376;28;20036;-92
2022/07/22 04:19:22;;;;;;;10.68;2.75;;;16.20;99.90;;;;;;5072683;28;20129;-92
2022/07/22 04:21:48;;;;;;;12.50;3.00;;;16.20;99.90;;;;;;5072286;28;20489;-93
2022/07/22 04:24:13;;;;;;;12.52;3.25;;;16.20;99.90;;;;;;5090671;28;20047;-93
2022/07/22 04:26:39;;;;;;;11.38;3.08;;;16.20;99.90;;;;;;5088507;28;20606;-92
2022/07/22 04:29:05;;;;;;;12.52;3.42;;;16.20;99.90;;;;;;5089149;28;20043;-93
2022/07/22 04:31:30;;;;;;;11.32;3.47;;;16.20;99.90;;;;;;5090555;28;20413;-93
2022/07/22 04:33:57;;;;;;;8.93;3.08;;;16.20;99.90;;;;;;5089315;28;20079;-92
2022/07/22 04:36:22;;;;;;;11.70;3.10;;;16.20;99.90;;;;;;5089670;28;20043;-93
2022/07/22 04:38:49;;;;;;;9.32;3.13;;;16.20;99.90;;;;;;5089838;28;20032;-93
2022/07/22 04:41:15;;;;;;;12.60;3.60;;;16.20;99.90;;;;;;5089245;28;20048;-92
2022/07/22 04:43:40;;;;;;;17.00;3.92;;;16.20;99.90;;;;;;5089251;28;20370;-93
2022/07/22 04:46:06;;;;;;;9.73;2.95;;;16.20;99.90;;;;;;5089689;28;20052;-93
2022/07/22 04:48:32;;;;;;;13.05;3.63;;;16.20;99.90;;;;;;5071090;28;20044;-93
2022/07/22 04:51:02;;;;;;;11.18;3.00;;;16.20;99.90;;;;;;5072373;28;20075;-93
2022/07/22 04:53:28;;;;;;;10.32;3.25;;;16.20;99.90;;;;;;5072390;28;20503;-93
2022/07/22 04:55:53;;;;;;;11.95;3.92;;;16.30;99.90;;;;;;5072356;28;20032;-93
2022/07/22 04:58:19;;;;;;;12.35;3.22;;;16.20;99.90;;;;;;5089034;28;20566;-93
2022/07/22 05:00:47;;;;;;;11.13;3.03;;;16.30;99.90;;;;;;5089083;28;20109;-92
2022/07/22 05:03:13;;;;;;;10.65;2.95;;;16.30;99.90;;;;;;5072941;28;20039;-92
2022/07/22 05:05:39;;;;;;;11.98;3.10;;;16.30;99.90;;;;;;5092436;28;20447;-92
2022/07/22 05:08:05;;;;;;;8.75;2.78;;;16.40;99.90;;;;;;5074674;28;20036;-91
2022/07/22 05:10:32;;;;;;;10.82;3.35;;;16.40;99.90;;;;;;5092240;28;20036;-92
2022/07/22 05:12:58;;;;;;;11.02;3.33;;;16.40;99.90;;;;;;5093337;28;20089;-93
2022/07/22 05:15:24;;;;;;;8.98;2.97;;;16.40;99.90;;;;;;5092276;28;20079;-93
2022/07/22 05:17:49;;;;;;;11.73;3.25;;;16.50;99.90;;;;;;5093568;28;20082;-93
2022/07/22 05:20:16;;;;;;;8.68;2.80;;;16.50;99.90;;;;;;5075556;28;20780;-92
2022/07/22 05:22:42;;;;;;;11.32;2.92;;;16.50;99.90;;;;;;5075395;28;20508;-93
2022/07/22 05:25:08;;;;;;;12.68;3.35;;;16.60;99.90;;;;;;5092982;28;20198;-93
2022/07/22 05:27:33;;;;;;;10.25;3.30;;;16.50;99.90;;;;;;5074218;28;20032;-93
2022/07/22 05:29:59;;;;;;;12.02;3.20;;;16.60;99.90;;;;;;5091230;28;20547;-92
2022/07/22 05:32:24;;;;;;;11.88;3.30;;;16.60;99.90;;;;;;5091643;28;20040;-93
2022/07/22 05:34:50;;;;;;;10.43;2.85;;;16.60;99.90;;;;;;5075305;28;20043;-93
2022/07/22 05:37:16;;;;;;;7.95;3.03;;;16.60;99.90;;;;;;5074982;28;20035;-93
2022/07/22 05:39:43;;;;;;;9.02;3.17;;;16.60;99.90;;;;;;5091418;28;20074;-93
2022/07/22 05:42:08;;;;;;;10.88;2.90;;;16.50;99.90;;;;;;5091872;28;20083;-93
2022/07/22 05:44:34;;;;;;;11.02;3.30;;;16.60;99.90;;;;;;5091215;28;20094;-93
2022/07/22 05:46:59;;;;;;;10.50;3.00;;;16.50;99.90;;;;;;5090990;28;20052;-93
2022/07/22 05:49:26;;;;;;;11.55;2.33;;;16.50;99.90;;;;;;5089584;28;20040;-93
2022/07/22 05:51:52;;;;;;;8.93;2.70;;;16.40;99.90;;;;;;5073501;28;20519;-93
2022/07/22 05:54:19;;;;;;;9.52;3.47;;;16.40;99.90;;;;;;5091389;28;20040;-93
2022/07/22 05:56:44;;;;;;;9.10;2.80;;;16.50;99.90;;;;;;5075055;28;20024;-93
2022/07/22 05:59:10;;;;;;;11.00;3.00;;;16.50;99.90;;;;;;5074636;28;20520;-93
2022/07/22 06:01:35;;;;;;;11.93;2.67;;;16.50;99.90;;;;;;5092134;28;20039;-93
2022/07/22 06:04:01;;;;;;;11.27;2.90;;;16.50;99.90;;;;;;5091172;28;20497;-92
2022/07/22 06:06:26;;;;;;;6.97;2.40;;;16.60;99.90;;;;;;5074515;28;20042;-93
2022/07/22 06:08:52;;;;;;;10.43;2.80;;;16.60;99.90;;;;;;5090308;28;20655;-92
2022/07/22 06:11:18;;;;;;;12.82;2.90;;;16.70;99.90;;;;;;5090901;28;20405;-92
2022/07/22 06:13:43;;;;;;;9.52;2.97;;;16.70;99.90;;;;;;5074758;28;20089;-93
2022/07/22 06:16:09;;;;;;;10.52;2.80;;;16.70;99.90;;;;;;5091256;28;20459;-92
2022/07/22 06:18:35;;;;;;;7.78;1.90;;;16.70;99.90;;;;;;5074376;28;20047;-92
2022/07/22 06:21:00;;;;;;;8.57;2.60;;;16.70;99.90;;;;;;5094666;28;20032;-92
2022/07/22 06:23:26;;;;;;;10.90;2.65;;;16.70;99.90;;;;;;5104167;28;20058;-92
2022/07/22 06:25:51;;;;;;;8.73;2.38;;;16.80;99.90;;;;;;5093637;28;20044;-92
2022/07/22 06:28:17;;;;;;;9.18;2.70;;;16.80;99.90;;;;;;5075309;28;20611;-92
2022/07/22 06:30:43;;;;;;;9.35;2.70;;;16.90;99.90;;;;;;5075138;28;20055;-93
2022/07/22 06:33:08;;;;;;;9.07;2.33;;;16.90;99.90;;;;;;5076707;28;20044;-93
2022/07/22 06:35:34;;;;;;;10.93;2.65;;;16.90;99.90;;;;;;5092357;28;20040;-93
2022/07/22 06:38:00;;;;;;;7.85;2.40;;;17.00;99.90;;;;;;5075623;28;20051;-93
2022/07/22 06:40:25;;;;;;;6.53;2.10;;;17.00;99.90;;;;;;5075520;28;20044;-92
2022/07/22 06:42:51;;;;;;;9.00;2.55;;;17.00;99.90;;;;;;5091151;28;20123;-92
2022/07/22 06:45:17;;;;;;;8.70;2.42;;;16.90;99.90;;;;;;5091607;28;20028;-92
2022/07/22 06:47:42;;;;;;;8.30;2.42;;;17.00;99.90;;;;;;5073801;28;20039;-92
2022/07/22 06:50:09;;;;;;;11.65;2.72;;;17.00;99.90;;;;;;5072896;28;20110;-92
2022/07/22 06:52:38;;;;;;;10.07;2.38;;;17.00;99.90;;;;;;5090379;28;20082;-92
2022/07/22 06:55:05;;;;;;;12.23;2.80;;;17.10;99.90;;;;;;5090286;28;20066;-92
2022/07/22 06:57:30;;;;;;;8.88;2.60;;;17.10;99.90;;;;;;5073638;28;20051;-92
2022/07/22 06:59:56;;;;;;;9.98;2.63;;;17.20;99.90;;;;;;5090204;28;20044;-92
2022/07/22 07:02:21;;;;;;;18.40;2.90;;;17.30;99.90;;;;;;5088555;28;20119;-92
2022/07/22 07:04:47;;;;;;;9.35;2.88;;;17.30;99.90;;;;;;5084405;28;20062;-92
2022/07/22 07:07:13;;;;;;;10.73;2.63;;;17.30;99.90;;;;;;5082781;28;20654;-92
2022/07/22 07:09:39;;;;;;;12.60;4.03;;;17.30;99.90;;;;;;5081744;28;20037;-92
2022/07/22 07:12:04;;;;;;;11.02;2.75;;;17.30;99.90;;;;;;5106761;28;20043;-92
2022/07/22 07:14:30;;;;;;;9.65;2.50;;;17.40;99.90;;;;;;5107435;28;20489;-91
2022/07/22 07:16:55;;;;;;;8.93;2.17;;;17.40;99.90;;;;;;5092199;28;20096;-92
2022/07/22 07:19:21;;;;;;;8.35;2.10;;;17.50;99.90;;;;;;5089690;28;20199;-92
2022/07/22 07:21:46;;;;;;;9.30;2.45;;;17.50;99.90;;;;;;5090159;28;20036;-91
2022/07/22 07:24:12;;;;;;;11.35;2.78;;;17.60;99.90;;;;;;5090312;28;20141;-92
2022/07/22 07:26:38;;;;;;;10.52;2.70;;;17.70;99.90;;;;;;5072132;28;20039;-92
2022/07/22 07:29:04;;;;;;;9.05;2.40;;;17.70;99.90;;;;;;5089660;28;20075;-92
2022/07/22 07:31:30;;;;;;;8.55;2.67;;;17.70;99.90;;;;;;5089358;28;20032;-92
2022/07/22 07:33:55;;;;;;;11.48;2.15;;;17.70;99.90;;;;;;5073513;28;20047;-92
2022/07/22 07:36:21;;;;;;;8.23;2.30;;;17.80;99.90;;;;;;5073286;28;20123;-92
2022/07/22 07:38:47;;;;;;;8.38;2.50;;;17.80;99.90;;;;;;5089850;28;20039;-92
2022/07/22 07:41:12;;;;;;;9.82;2.50;;;17.80;99.90;;;;;;5073241;28;20429;-92
2022/07/22 07:43:38;;;;;;;9.20;2.22;;;17.90;99.90;;;;;;5089141;28;20047;-92
2022/07/22 07:46:04;;;;;;;9.10;2.00;;;17.90;99.90;;;;;;5091386;28;20090;-93
2022/07/22 07:48:29;;;;;;;9.00;2.35;;;18.00;99.90;;;;;;5106566;28;20036;-93
2022/07/22 07:50:55;;;;;;;9.85;2.10;;;18.10;99.90;;;;;;5089249;28;20036;-92
2022/07/22 07:53:21;;;;;;;9.88;2.17;;;18.00;99.90;;;;;;5090386;28;20452;-92
2022/07/22 07:55:46;;;;;;;7.57;2.15;;;18.00;99.90;;;;;;5072525;28;20032;-93
2022/07/22 07:58:12;;;;;;;8.32;2.00;;;18.10;99.90;;;;;;5090626;28;20614;-93
2022/07/22 08:00:39;;;;;;;8.00;1.95;;;18.10;99.90;;;;;;5090743;28;20409;-93
2022/07/22 08:03:05;;;;;;;7.03;2.17;;;18.10;99.90;;;;;;5090895;28;20489;-93
2022/07/22 08:05:31;;;;;;;7.07;2.30;;;18.10;99.90;;;;;;5089083;28;20036;-92
2022/07/22 08:07:57;;;;;;;9.63;2.30;;;18.10;99.90;;;;;;5090799;28;20047;-92
2022/07/22 08:10:22;;;;;;;9.43;2.40;;;18.10;99.90;;;;;;5088437;28;20040;-92
2022/07/22 08:12:48;;;;;;;12.02;2.45;;;18.00;99.90;;;;;;5088731;28;20040;-92
2022/07/22 08:15:14;;;;;;;11.25;2.30;;;18.00;99.90;;;;;;5073149;28;20046;-92
2022/07/22 08:17:40;;;;;;;7.38;2.00;;;18.00;99.90;;;;;;5089878;28;20420;-92
2022/07/22 08:20:06;;;;;;;9.02;2.15;;;18.00;99.90;;;;;;5071339;28;20055;-92
2022/07/22 08:22:32;;;;;;;8.32;1.77;;;17.90;99.90;;;;;;5088689;28;20206;-93
2022/07/22 08:24:57;;;;;;;8.90;1.80;;;18.00;99.90;;;;;;5090197;28;20123;-92
2022/07/22 08:27:23;;;;;;;9.95;1.95;;;18.00;99.90;;;;;;5090245;28;20051;-93
2022/07/22 08:29:48;;;;;;;9.60;2.33;;;18.00;99.90;;;;;;5088182;28;20093;-92
2022/07/22 08:32:14;;;;;;;7.80;1.83;;;18.10;99.90;;;;;;5089018;28;20050;-90
2022/07/22 08:34:40;;;;;;;7.25;1.70;;;18.20;99.90;;;;;;5089820;28;20040;-90
2022/07/22 08:37:06;;;;;;;8.65;1.90;;;18.20;99.90;;;;;;5073478;28;20048;-90
2022/07/22 08:39:33;;;;;;;7.70;1.88;;;18.20;99.90;;;;;;5076501;28;20119;-90
2022/07/22 08:41:59;;;;;;;8.05;2.10;;;18.30;99.90;;;;;;5093596;28;20040;-91
2022/07/22 08:44:28;;;;;;;7.47;1.92;;;18.30;99.90;;;;;;5075787;28;20028;-90
2022/07/22 08:46:53;;;;;;;7.68;1.60;;;18.40;99.90;;;;;;5092758;28;20043;-90
2022/07/22 08:49:19;;;;;;;7.57;1.92;;;18.40;99.90;;;;;;5092259;28;20028;-90
2022/07/22 08:51:45;;;;;;;6.70;1.80;;;18.40;99.90;;;;;;5092590;28;20040;-91
2022/07/22 08:54:10;;;;;;;7.50;1.92;;;18.40;99.90;;;;;;5093536;28;20512;-91
2022/07/22 08:56:37;;;;;;;7.32;1.90;;;18.40;99.90;;;;;;5093406;28;20074;-90
2022/07/22 08:59:03;;;;;;;7.22;1.90;;;18.30;99.90;;;;;;5075274;28;20044;-91
2022/07/22 09:01:29;;;;;;;9.48;2.00;;;18.30;99.90;;;;;;5093247;28;20047;-91
2022/07/22 09:03:56;;;;;;;5.80;1.80;;;18.20;99.90;;;;;;5092338;28;20093;-91
2022/07/22 09:06:24;;;;;;;6.85;2.00;;;18.20;99.90;;;;;;5093091;28;20098;-91
2022/07/22 09:08:51;;;;;;;11.98;2.30;;;18.20;99.90;;;;;;5091226;28;20036;-90
2022/07/22 09:11:18;;;;;;;6.97;1.85;;;18.20;99.90;;;;;;5075278;28;20094;-91
2022/07/22 09:13:47;;;;;;;7.40;1.92;;;18.20;99.90;;;;;;5088763;28;20063;-91
2022/07/22 09:16:13;;;;;;;7.28;1.70;;;18.20;99.90;;;;;;5073885;28;20100;-91
2022/07/22 09:18:46;;;;;;;6.68;1.95;;;18.20;99.90;;;;;;5092897;28;20058;-91
2022/07/22 09:21:13;;;;;;;6.30;1.85;;;18.30;99.90;;;;;;5075394;28;20048;-91
2022/07/22 09:23:41;;;;;;;7.20;1.60;;;18.40;99.90;;;;;;5093209;28;20047;-91
2022/07/22 09:26:07;;;;;;;8.20;2.13;;;18.40;99.90;;;;;;5093102;28;20067;-90
2022/07/22 09:28:33;;;;;;;7.00;1.67;;;18.50;99.90;;;;;;5092990;28;20040;-91
2022/07/22 09:30:58;;;;;;;6.85;1.65;;;18.50;99.90;;;;;;5092894;28;20032;-91
2022/07/22 09:33:24;;;;;;;9.88;2.17;;;18.50;99.90;;;;;;5092912;28;20036;-92
2022/07/22 09:35:51;;;;;;;9.05;2.10;;;18.50;99.90;;;;;;5076257;28;20083;-92
2022/07/22 09:38:19;;;;;;;6.05;1.77;;;18.40;99.90;;;;;;5092845;28;20492;-92
2022/07/22 09:40:46;;;;;;;7.75;1.80;;;18.50;99.90;;;;;;5075642;28;20035;-92
2022/07/22 09:43:17;;;;;;;4.78;1.50;;;18.50;99.90;;;;;;5076040;28;20036;-92
2022/07/22 09:45:53;;;;;;;5.75;1.70;;;18.60;99.90;;;;;;5092848;28;20036;-92
2022/07/22 09:48:21;;;;;;;7.53;2.10;;;18.60;99.90;;;;;;5092820;28;20127;-92
2022/07/22 09:50:48;;;;;;;6.10;1.75;;;18.60;99.90;;;;;;5075213;28;20040;-92
2022/07/22 09:53:15;;;;;;;8.45;1.88;;;18.60;99.90;;;;;;5092486;28;20046;-92
2022/07/22 09:55:41;;;;;;;8.23;2.00;;;18.70;99.90;;;;;;5092594;28;20036;-92
2022/07/22 09:58:07;;;;;;;7.95;2.30;;;18.70;99.90;;;;;;5092774;28;20040;-92
2022/07/22 10:00:34;;;;;;;8.43;1.95;;;18.80;99.90;;;;;;5092708;28;20374;-92
2022/07/22 10:03:04;;;;;;;6.47;1.67;;;18.90;99.90;;;;;;5092548;28;20105;-93
2022/07/22 10:05:35;;;;;;;8.18;2.38;;;18.90;99.90;;;;;;5075498;28;20036;-92
2022/07/22 10:08:04;;;;;;;8.17;2.00;;;18.80;99.90;;;;;;5092590;28;20071;-93
2022/07/22 10:10:31;;;;;;;9.43;2.53;;;18.80;99.90;;;;;;5091988;28;20530;-93
2022/07/22 10:12:58;;;;;;;7.68;1.70;;;18.70;99.90;;;;;;5092251;28;20516;-92
2022/07/22 10:15:25;;;;;;;9.68;2.10;;;18.60;99.90;;;;;;5075118;28;20443;-92
2022/07/22 10:17:56;;;;;;;7.93;1.83;;;18.60;99.90;;;;;;5092410;28;20052;-92
2022/07/22 10:20:24;;;;;;;6.70;1.83;;;18.60;99.90;;;;;;5091780;28;20036;-92
2022/07/22 10:22:57;;;;;;;7.40;1.80;;;18.60;99.90;;;;;;5075489;28;20037;-92
2022/07/22 10:25:25;;;;;;;5.85;1.42;;;18.70;99.90;;;;;;5091738;28;20421;-92
2022/07/22 10:28:03;;;;;;;5.95;1.60;;;18.70;99.90;;;;;;5074647;28;20043;-92
2022/07/22 10:30:43;;;;;;;7.10;1.70;;;18.70;99.90;;;;;;5091245;28;20043;-93
2022/07/22 10:33:19;;;;;;;6.78;1.70;;;18.70;99.90;;;;;;5074997;28;20043;-92
2022/07/22 10:35:56;;;;;;;8.25;2.10;;;18.80;99.90;;;;;;5075197;28;20048;-93
2022/07/22 10:38:22;;;;;;;7.22;1.73;;;19.00;99.90;;;;;;5091692;28;20044;-92
2022/07/22 10:40:57;;;;;;;7.88;1.80;;;19.10;99.90;;;;;;5091430;28;20051;-92
2022/07/22 10:43:27;;;;;;;8.30;2.05;;;19.30;99.90;;;;;;5091523;28;20036;-92
2022/07/22 10:45:58;;;;;;;6.13;1.50;;;19.50;99.90;;;;;;5090771;28;20408;-92
2022/07/22 10:48:36;;;;;;;5.82;1.42;;;19.50;99.90;;;;;;5091772;28;20101;-92
2022/07/22 10:51:15;;;;;;;7.13;1.92;;;19.70;99.90;;;;;;5091478;28;20043;-93
2022/07/22 10:54:07;;;;;;;6.30;1.38;;;19.70;99.90;;;;;;5091766;28;20440;-93
2022/07/22 10:56:35;;;;;;;7.47;1.60;;;19.70;99.90;;;;;;5071317;28;20413;-92
2022/07/22 10:59:19;;;;;;;5.20;1.42;;;19.60;99.90;;;;;;5091631;28;20039;-92
2022/07/22 11:01:51;;;;;;;6.78;1.70;;;19.60;99.90;;;;;;5073232;28;20043;-92
2022/07/22 11:04:22;;;;;;;7.03;1.58;;;19.70;99.90;;;;;;5091664;28;20044;-92
2022/07/22 11:06:52;;;;;;;6.65;1.67;;;19.70;99.90;;;;;;5091226;28;20036;-92
2022/07/22 11:09:22;;;;;;;5.68;1.70;;;19.70;99.90;;;;;;5084925;28;20493;-92
2022/07/22 11:11:53;;;;;;;6.43;1.80;;;19.70;99.90;;;;;;5099613;28;20564;-92
2022/07/22 11:14:20;;;;;;;6.35;1.70;;;19.70;99.90;;;;;;5081918;28;20043;-92
2022/07/22 11:16:48;;;;;;;4.97;1.40;;;19.70;99.90;;;;;;5065562;28;20093;-92
2022/07/22 11:19:14;;;;;;;5.57;1.77;;;19.80;99.90;;;;;;5088579;28;20094;-92
2022/07/22 11:21:40;;;;;;;8.25;1.77;;;19.70;99.90;;;;;;5070692;28;20049;-92
2022/07/22 11:24:07;;;;;;;8.23;1.92;;;19.60;99.90;;;;;;5071248;28;20048;-92
2022/07/22 11:26:44;;;;;;;8.88;2.05;;;19.50;99.90;;;;;;5070867;28;20051;-91
2022/07/22 11:29:14;;;;;;;5.88;1.70;;;19.40;99.90;;;;;;5054132;28;20028;-92
2022/07/22 11:31:40;;;;;;;5.80;1.73;;;19.30;99.90;;;;;;5070250;28;20032;-92
2022/07/22 11:34:06;;;;;;;7.80;2.05;;;19.40;99.90;;;;;;5054197;28;20082;-91
2022/07/22 11:36:34;;;;;;;9.15;3.60;;;19.40;99.90;;;;;;5070350;28;20040;-92
2022/07/22 11:39:00;;;;;;;7.22;2.70;;;19.40;99.90;;;;;;5083441;28;20051;-92
2022/07/22 11:41:29;;;;;;;7.65;2.00;;;19.50;99.90;;;;;;5107643;28;20040;-92
2022/07/22 11:43:54;;;;;;;6.85;1.80;;;19.60;99.90;;;;;;5091999;28;20106;-92
2022/07/22 11:46:20;;;;;;;7.43;1.83;;;19.60;99.90;;;;;;5107795;28;20561;-91
2022/07/22 11:48:46;;;;;;;6.93;1.77;;;19.60;99.90;;;;;;5100587;28;20525;-92
2022/07/22 11:51:14;;;;;;;8.13;2.00;;;19.60;99.90;;;;;;5080780;28;20044;-92
2022/07/22 11:53:41;;;;;;;7.93;1.92;;;19.70;99.90;;;;;;5064040;28;20047;-92
2022/07/22 11:56:08;;;;;;;7.88;2.13;;;19.70;99.90;;;;;;5081097;28;20081;-92
2022/07/22 11:58:34;;;;;;;8.98;2.00;;;19.70;99.90;;;;;;5078185;28;20041;-92
2022/07/22 12:01:00;;;;;;;5.22;1.77;;;19.70;99.90;;;;;;5076335;28;20057;-92
2022/07/22 12:03:26;;;;;;;6.45;1.88;;;19.70;99.90;;;;;;5080954;28;20123;-92
2022/07/22 12:05:53;;;;;;;7.82;1.80;;;19.80;99.90;;;;;;5105569;28;20064;-92
2022/07/22 12:08:18;;;;;;;8.43;2.20;;;19.80;99.90;;;;;;5090893;28;20037;-92
2022/07/22 12:10:44;;;;;;;7.82;1.88;;;19.80;99.90;;;;;;5090698;28;20039;-92
2022/07/22 12:13:13;;;;;;;15.05;5.32;;;19.80;99.90;;;;;;5093425;28;20036;-92
2022/07/22 12:15:39;;;;;;;12.13;4.78;;;19.80;99.90;;;;;;5094670;28;20052;-92
2022/07/22 12:18:19;;;;;;;10.65;3.72;;;19.80;99.90;;;;;;5094690;28;20044;-92
2022/07/22 12:20:47;;;;;;;12.25;3.13;;;19.80;99.90;;;;;;5094400;28;20449;-92
2022/07/22 12:23:13;;;;;;;6.68;1.80;;;19.80;99.90;;;;;;5094447;28;20040;-92
2022/07/22 12:25:59;;;;;;;17.80;7.10;;;19.80;99.90;;;;;;5094429;28;20040;-92
2022/07/22 12:28:25;;;;;;;8.93;2.70;;;19.90;99.90;;;;;;5094940;28;20084;-93
2022/07/22 12:30:53;;;;;;;8.05;2.00;;;19.90;99.90;;;;;;5093864;28;20040;-92
2022/07/22 12:33:20;;;;;;;7.53;2.03;;;19.90;99.90;;;;;;5094433;28;20044;-92
2022/07/22 12:35:58;;;;;;;7.68;1.88;;;19.90;99.90;;;;;;5094248;28;20036;-92
2022/07/22 12:38:24;;;;;;;7.28;1.67;;;20.00;99.90;;;;;;5094324;28;20040;-92
2022/07/22 12:40:49;;;;;;;7.25;1.77;;;19.90;99.90;;;;;;5094523;28;20557;-92